Dk Ione — 3ETX — position and weather

sailwx.info

Track history (hours):
 
Tides and Currents Weather Stations Pressure Air Temp Water Temp Dewpoint Dewpoint Depression Visibility Wind Speed Wind Dir Waves Ship Positions

Dk Ione

Last reported at 2015-Jan-12 06:31 UTC. Time now 2015-Jan-30 02:35 UTC.
Position N 35°59' E 120°28'.
Warning: this ship's position is 17 days out of date.

Length 196 m; draft 6.7 m.

Type: Cargo ship. MMSI: 353245000.

Date/timePositionNaut miles runAvg speedWind from/ knotsBaromVisibWave heightAir tempDewpointWater temp
2015-Jan-12 06:31N 35°59' E 120°28'2 0.3
2015-Jan-12 00:29N 35°59' E 120°26'0 0.1
2015-Jan-11 23:29N 35°59' E 120°25'0 0.0
2015-Jan-11 22:29N 35°59' E 120°25'0 0.1
2015-Jan-11 21:29N 35°59' E 120°25'0 0.1
2015-Jan-11 20:30N 35°59' E 120°26'6 6.4
2015-Jan-11 19:33N 36°01' E 120°19'5 4.0
2015-Jan-11 18:23N 36°01' E 120°13'0 0.0
2015-Jan-11 16:29N 36°01' E 120°13'0 0.0
2015-Jan-11 15:29N 36°01' E 120°13'0 0.0
2015-Jan-11 14:29N 36°01' E 120°13'0 0.0
2015-Jan-11 13:29N 36°01' E 120°13'0 0.0
2015-Jan-11 12:32N 36°01' E 120°13'0 0.0
2015-Jan-11 11:29N 36°01' E 120°13'0 0.0
2015-Jan-11 08:29N 36°01' E 120°13'0 0.0
2015-Jan-11 07:26N 36°01' E 120°13'0 0.0
2015-Jan-11 06:29N 36°01' E 120°13'0 0.0
2015-Jan-11 01:05N 36°01' E 120°13'0 0.0
2015-Jan-11 00:29N 36°01' E 120°13'0 0.0
2015-Jan-10 23:29N 36°01' E 120°13'0 0.0
2015-Jan-10 22:29N 36°01' E 120°13'0 0.0
2015-Jan-10 21:29N 36°01' E 120°13'0 0.0
2015-Jan-10 20:29N 36°01' E 120°13'0 0.0
2015-Jan-10 19:29N 36°01' E 120°13'0 0.0
2015-Jan-10 18:29N 36°01' E 120°13'0 0.0
2015-Jan-10 17:29N 36°01' E 120°13'0 0.0
2015-Jan-10 16:29N 36°01' E 120°13'0 0.0
2015-Jan-10 15:29N 36°01' E 120°13'0 0.0
2015-Jan-10 14:29N 36°01' E 120°13'0 0.0
2015-Jan-10 13:29N 36°01' E 120°13'0 0.0
2015-Jan-10 12:26N 36°01' E 120°13'0 0.0
2015-Jan-10 07:32N 36°01' E 120°13'0 0.0
2015-Jan-10 03:32N 36°01' E 120°13'0 0.0
2015-Jan-10 02:05N 36°01' E 120°13'0 0.0
2015-Jan-10 01:16N 36°01' E 120°13'0 0.0
2015-Jan-10 00:17N 36°01' E 120°13'0 0.0
2015-Jan-09 23:29N 36°01' E 120°13'0 0.0
2015-Jan-09 22:28N 36°01' E 120°13'0 0.0
2015-Jan-09 21:29N 36°01' E 120°13'0 0.0
2015-Jan-09 20:29N 36°01' E 120°13'0 0.0
2015-Jan-09 19:28N 36°01' E 120°13'0 0.0
2015-Jan-09 18:28N 36°01' E 120°13'0 0.0
2015-Jan-09 17:28N 36°01' E 120°13'0 0.0
2015-Jan-09 16:29N 36°01' E 120°13'0 0.0
2015-Jan-09 15:28N 36°01' E 120°13'0 0.0
2015-Jan-09 14:28N 36°01' E 120°13'0 0.0
2015-Jan-09 09:19N 36°01' E 120°13'1 1.6
2015-Jan-09 08:25N 36°02' E 120°15'6 6.8
2015-Jan-09 07:33N 36°01' E 120°22'11 9.3
2015-Jan-09 06:25N 35°59' E 120°34'11 2.6
2015-Jan-09 02:07N 36°00' E 120°48'  
2015-Jan-05 14:09N 23°06' E 119°44'814.2
2015-Jan-05 13:33N 22°59' E 119°40'  
Track history (hours):
 
Tides and Currents Weather Stations Pressure Air Temp Water Temp Dewpoint Dewpoint Depression Visibility Wind Speed Wind Dir Waves Ship Positions

Dk Ione

Last reported at 2015-Jan-12 06:31 UTC. Time now 2015-Jan-30 02:35 UTC.
Position N 35°59' E 120°28'.
Warning: this ship's position is 17 days out of date.

Length 196 m; draft 6.7 m.

Type: Cargo ship. MMSI: 353245000.

Date/timePositionNaut miles runAvg speedWind from/ knotsBaromVisibWave heightAir tempDewpointWater temp
2015-Jan-12 06:31N 35°59' E 120°28'2 0.3
2015-Jan-12 00:29N 35°59' E 120°26'0 0.1
2015-Jan-11 23:29N 35°59' E 120°25'0 0.0
2015-Jan-11 22:29N 35°59' E 120°25'0 0.1
2015-Jan-11 21:29N 35°59' E 120°25'0 0.1
2015-Jan-11 20:30N 35°59' E 120°26'6 6.4
2015-Jan-11 19:33N 36°01' E 120°19'5 4.0
2015-Jan-11 18:23N 36°01' E 120°13'0 0.0
2015-Jan-11 16:29N 36°01' E 120°13'0 0.0
2015-Jan-11 15:29N 36°01' E 120°13'0 0.0
2015-Jan-11 14:29N 36°01' E 120°13'0 0.0
2015-Jan-11 13:29N 36°01' E 120°13'0 0.0
2015-Jan-11 12:32N 36°01' E 120°13'0 0.0
2015-Jan-11 11:29N 36°01' E 120°13'0 0.0
2015-Jan-11 08:29N 36°01' E 120°13'0 0.0
2015-Jan-11 07:26N 36°01' E 120°13'0 0.0
2015-Jan-11 06:29N 36°01' E 120°13'0 0.0
2015-Jan-11 01:05N 36°01' E 120°13'0 0.0
2015-Jan-11 00:29N 36°01' E 120°13'0 0.0
2015-Jan-10 23:29N 36°01' E 120°13'0 0.0
2015-Jan-10 22:29N 36°01' E 120°13'0 0.0
2015-Jan-10 21:29N 36°01' E 120°13'0 0.0
2015-Jan-10 20:29N 36°01' E 120°13'0 0.0
2015-Jan-10 19:29N 36°01' E 120°13'0 0.0
2015-Jan-10 18:29N 36°01' E 120°13'0 0.0
2015-Jan-10 17:29N 36°01' E 120°13'0 0.0
2015-Jan-10 16:29N 36°01' E 120°13'0 0.0
2015-Jan-10 15:29N 36°01' E 120°13'0 0.0
2015-Jan-10 14:29N 36°01' E 120°13'0 0.0
2015-Jan-10 13:29N 36°01' E 120°13'0 0.0
2015-Jan-10 12:26N 36°01' E 120°13'0 0.0
2015-Jan-10 07:32N 36°01' E 120°13'0 0.0
2015-Jan-10 03:32N 36°01' E 120°13'0 0.0
2015-Jan-10 02:05N 36°01' E 120°13'0 0.0
2015-Jan-10 01:16N 36°01' E 120°13'0 0.0
2015-Jan-10 00:17N 36°01' E 120°13'0 0.0
2015-Jan-09 23:29N 36°01' E 120°13'0 0.0
2015-Jan-09 22:28N 36°01' E 120°13'0 0.0
2015-Jan-09 21:29N 36°01' E 120°13'0 0.0
2015-Jan-09 20:29N 36°01' E 120°13'0 0.0
2015-Jan-09 19:28N 36°01' E 120°13'0 0.0
2015-Jan-09 18:28N 36°01' E 120°13'0 0.0
2015-Jan-09 17:28N 36°01' E 120°13'0 0.0
2015-Jan-09 16:29N 36°01' E 120°13'0 0.0
2015-Jan-09 15:28N 36°01' E 120°13'0 0.0
2015-Jan-09 14:28N 36°01' E 120°13'0 0.0
2015-Jan-09 09:19N 36°01' E 120°13'1 1.6
2015-Jan-09 08:25N 36°02' E 120°15'6 6.8
2015-Jan-09 07:33N 36°01' E 120°22'11 9.3
2015-Jan-09 06:25N 35°59' E 120°34'11 2.6
2015-Jan-09 02:07N 36°00' E 120°48'  
2015-Jan-05 14:09N 23°06' E 119°44'814.2
2015-Jan-05 13:33N 22°59' E 119°40'  

Dump ship's entire track history